Time;durP1;ratioP1;P1;durP2;ratioP2;P2;SDS_P1;SDS_P2;PMS_P1;PMS_P2;Temp;Humidity;BMP_temperature;BMP_pressure;BME280_temperature;BME280_humidity;BME280_pressure;Samples;Min_cycle;Max_cycle;Signal;HPM_P1;HPM_P2
2022/02/19 00:00:10;;;;;;;7.22;0.98;;;24.40;99.30;;;;;;5048863;28;20078;-73
2022/02/19 00:02:38;;;;;;;6.70;1.60;;;24.20;99.60;;;;;;5051697;28;20100;-73
2022/02/19 00:05:06;;;;;;;8.38;1.35;;;24.20;99.70;;;;;;5045468;28;20037;-78
2022/02/19 00:07:34;;;;;;;8.23;1.05;;;24.30;99.90;;;;;;5051199;28;20284;-75
2022/02/19 00:10:01;;;;;;;7.50;1.67;;;24.40;99.90;;;;;;5047947;28;20483;-76
2022/02/19 00:12:28;;;;;;;9.77;1.23;;;24.40;99.30;;;;;;5050923;28;20029;-75
2022/02/19 00:14:55;;;;;;;7.22;1.30;;;24.50;99.90;;;;;;5049246;28;20426;-74
2022/02/19 00:17:23;;;;;;;7.50;1.42;;;24.50;99.60;;;;;;5045117;28;20075;-74
2022/02/19 00:19:53;;;;;;;6.53;1.10;;;24.40;99.60;;;;;;5044564;28;20549;-75
2022/02/19 00:22:21;;;;;;;8.30;1.55;;;24.40;99.50;;;;;;5045938;28;20033;-73
2022/02/19 00:24:49;;;;;;;7.95;1.15;;;24.40;99.20;;;;;;5045143;28;20040;-73
2022/02/19 00:27:16;;;;;;;5.78;1.20;;;24.30;99.50;;;;;;5049230;28;20048;-74
2022/02/19 00:29:43;;;;;;;15.95;2.60;;;24.30;99.30;;;;;;5037236;28;20059;-73
2022/02/19 00:32:11;;;;;;;12.35;1.65;;;24.30;99.20;;;;;;5047780;28;20349;-73
2022/02/19 00:34:38;;;;;;;4.30;1.00;;;24.30;99.20;;;;;;5048747;28;20021;-73
2022/02/19 00:37:06;;;;;;;8.82;1.45;;;24.30;99.40;;;;;;5049207;28;20029;-73
2022/02/19 00:39:33;;;;;;;7.35;0.95;;;24.20;99.60;;;;;;5049253;28;20111;-73
2022/02/19 00:42:02;;;;;;;7.10;2.00;;;24.10;99.50;;;;;;5050214;28;20049;-75
2022/02/19 00:44:31;;;;;;;9.50;1.50;;;24.10;99.40;;;;;;5048404;28;20068;-72
2022/02/19 00:46:58;;;;;;;11.77;2.53;;;24.10;99.60;;;;;;5049793;28;20534;-73
2022/02/19 00:49:25;;;;;;;7.40;1.60;;;24.00;99.30;;;;;;5048561;28;20025;-74
2022/02/19 00:51:53;;;;;;;5.57;1.35;;;24.10;99.40;;;;;;5050363;28;20029;-74
2022/02/19 00:54:20;;;;;;;8.25;1.70;;;24.10;99.50;;;;;;5048172;28;20039;-73
2022/02/19 00:56:47;;;;;;;6.57;2.08;;;24.10;99.70;;;;;;5042265;28;20013;-74
2022/02/19 00:59:15;;;;;;;13.88;2.00;;;24.00;99.90;;;;;;5048778;28;20028;-74
2022/02/19 01:01:42;;;;;;;7.53;1.75;;;24.10;99.90;;;;;;5050114;28;20483;-74
2022/02/19 01:04:09;;;;;;;6.70;1.92;;;24.30;99.90;;;;;;5048535;28;20041;-73
2022/02/19 01:06:36;;;;;;;10.02;2.42;;;24.40;99.40;;;;;;5049524;28;20021;-74
2022/02/19 01:09:04;;;;;;;6.63;1.83;;;24.50;99.30;;;;;;5048056;28;20059;-73
2022/02/19 01:11:31;;;;;;;8.10;2.08;;;24.70;99.40;;;;;;5034850;28;20029;-74
2022/02/19 01:13:58;;;;;;;6.05;1.10;;;25.00;99.10;;;;;;5042471;28;20476;-74
2022/02/19 01:16:26;;;;;;;6.63;1.90;;;25.20;98.90;;;;;;5051071;28;20487;-74
2022/02/19 01:18:53;;;;;;;5.68;1.77;;;25.40;98.80;;;;;;5052378;28;20117;-73
2022/02/19 01:21:20;;;;;;;6.97;1.20;;;25.50;98.70;;;;;;5043001;28;20313;-75
2022/02/19 01:23:48;;;;;;;6.97;1.00;;;25.40;98.80;;;;;;5053364;28;20059;-74
2022/02/19 01:26:15;;;;;;;6.90;1.05;;;25.30;98.40;;;;;;5052298;28;20380;-74
2022/02/19 01:28:42;;;;;;;4.95;2.15;;;25.20;98.50;;;;;;5051180;28;20043;-73
2022/02/19 01:31:10;;;;;;;8.43;1.55;;;25.10;99.20;;;;;;5053338;28;20031;-74
2022/02/19 01:33:37;;;;;;;8.23;1.20;;;24.90;99.00;;;;;;5051993;28;20133;-74
2022/02/19 01:36:05;;;;;;;7.13;1.33;;;24.70;98.60;;;;;;5051983;28;20179;-74
2022/02/19 01:38:32;;;;;;;6.78;1.20;;;24.60;98.80;;;;;;5050954;28;20025;-74
2022/02/19 01:41:00;;;;;;;4.38;1.27;;;24.60;99.10;;;;;;5050241;28;20052;-75
2022/02/19 01:43:27;;;;;;;5.70;1.08;;;24.50;99.30;;;;;;5052916;28;20048;-73
2022/02/19 01:45:54;;;;;;;8.95;1.45;;;24.40;99.20;;;;;;5050853;28;20033;-74
2022/02/19 01:48:21;;;;;;;9.50;1.50;;;24.20;99.20;;;;;;5049515;28;20752;-76
2022/02/19 01:50:49;;;;;;;4.18;1.20;;;24.10;99.50;;;;;;5053382;28;20024;-73
2022/02/19 01:53:17;;;;;;;7.82;1.17;;;23.90;99.90;;;;;;5044412;28;20021;-73
2022/02/19 01:55:47;;;;;;;9.90;2.00;;;23.90;99.90;;;;;;5052597;28;20025;-74
2022/02/19 01:58:15;;;;;;;6.22;1.15;;;23.80;99.90;;;;;;5051152;28;20137;-75
2022/02/19 02:00:42;;;;;;;12.30;2.25;;;23.90;99.90;;;;;;5050832;28;20107;-73
2022/02/19 02:03:10;;;;;;;13.77;1.63;;;23.90;99.90;;;;;;5052710;28;20035;-74
2022/02/19 02:05:37;;;;;;;7.22;1.55;;;24.00;99.90;;;;;;5049789;28;20052;-73
2022/02/19 02:08:05;;;;;;;13.00;2.13;;;24.10;99.90;;;;;;5051893;28;20051;-73
2022/02/19 02:10:34;;;;;;;10.43;1.20;;;24.20;99.90;;;;;;5046956;28;20025;-74
2022/02/19 02:13:04;;;;;;;7.40;2.10;;;24.40;99.90;;;;;;5050327;28;20432;-73
2022/02/19 02:15:33;;;;;;;5.72;1.75;;;24.60;99.80;;;;;;5051710;28;20060;-73
2022/02/19 02:18:01;;;;;;;8.18;2.05;;;25.00;99.10;;;;;;5052568;28;20028;-74
2022/02/19 02:20:29;;;;;;;5.47;1.38;;;25.30;99.20;;;;;;5050486;28;20392;-74
2022/02/19 02:22:58;;;;;;;10.75;1.48;;;25.70;98.90;;;;;;5050449;28;20041;-73
2022/02/19 02:25:32;;;;;;;11.77;1.92;;;26.00;97.80;;;;;;5043643;28;20037;-74
2022/02/19 02:27:59;;;;;;;10.30;1.98;;;26.10;97.80;;;;;;5049924;28;20021;-74
2022/02/19 02:30:27;;;;;;;11.45;1.95;;;26.30;97.40;;;;;;5049767;28;20033;-73
2022/02/19 02:32:54;;;;;;;4.25;1.00;;;26.50;97.20;;;;;;5051451;28;20488;-74
2022/02/19 02:35:21;;;;;;;10.40;2.03;;;26.80;97.40;;;;;;5051029;28;20549;-73
2022/02/19 02:37:49;;;;;;;10.75;2.33;;;26.80;96.90;;;;;;5051382;28;20074;-74
2022/02/19 02:40:16;;;;;;;4.50;1.23;;;26.60;96.80;;;;;;5051092;28;20029;-73
2022/02/19 02:42:43;;;;;;;9.23;1.15;;;26.60;96.10;;;;;;5052553;28;20061;-75
2022/02/19 02:45:11;;;;;;;7.47;1.65;;;26.60;96.50;;;;;;5052068;28;20435;-74
2022/02/19 02:47:43;;;;;;;7.35;1.35;;;26.50;96.70;;;;;;5051701;28;20036;-73
2022/02/19 02:50:11;;;;;;;8.63;1.30;;;26.20;97.00;;;;;;5051689;28;20065;-73
2022/02/19 02:52:40;;;;;;;9.13;1.50;;;26.00;97.20;;;;;;5052610;28;20033;-74
2022/02/19 02:55:09;;;;;;;9.38;1.52;;;25.90;97.70;;;;;;5048781;28;20021;-73
2022/02/19 02:57:37;;;;;;;10.60;1.60;;;26.00;97.60;;;;;;5050867;28;20475;-73
2022/02/19 03:00:07;;;;;;;7.22;1.20;;;26.20;97.10;;;;;;5048834;28;20035;-74
2022/02/19 03:02:37;;;;;;;4.88;0.88;;;26.10;96.90;;;;;;5048511;28;20025;-74
2022/02/19 03:05:11;;;;;;;13.82;1.70;;;26.20;96.40;;;;;;5050712;28;20040;-74
2022/02/19 03:07:38;;;;;;;8.82;1.20;;;26.10;96.50;;;;;;5051065;28;20119;-76
2022/02/19 03:10:07;;;;;;;7.22;1.40;;;25.80;96.90;;;;;;5051162;28;20035;-74
2022/02/19 03:12:34;;;;;;;5.82;1.20;;;25.60;97.10;;;;;;5050239;28;20024;-75
2022/02/19 03:15:02;;;;;;;6.78;1.83;;;25.50;97.00;;;;;;5050565;28;20109;-73
2022/02/19 03:17:35;;;;;;;7.90;1.38;;;25.40;97.10;;;;;;5051174;28;20033;-73
2022/02/19 03:20:02;;;;;;;3.60;1.20;;;25.40;97.20;;;;;;5049179;28;20506;-74
2022/02/19 03:22:30;;;;;;;9.48;1.83;;;25.30;97.40;;;;;;5048844;28;20052;-74
2022/02/19 03:24:57;;;;;;;5.03;1.75;;;25.30;97.30;;;;;;5047853;28;20112;-72
2022/02/19 03:27:27;;;;;;;10.13;1.42;;;25.20;96.90;;;;;;5049966;28;20163;-75
2022/02/19 03:29:55;;;;;;;11.15;2.60;;;25.10;97.40;;;;;;5048589;28;20040;-75
2022/02/19 03:32:22;;;;;;;4.95;1.17;;;25.10;97.90;;;;;;5041340;28;20043;-73
2022/02/19 03:34:50;;;;;;;6.07;1.77;;;25.00;97.50;;;;;;5049072;28;20029;-73
2022/02/19 03:37:17;;;;;;;10.88;1.40;;;25.00;97.50;;;;;;5049176;28;20021;-74
2022/02/19 03:39:44;;;;;;;10.02;1.48;;;25.10;97.40;;;;;;5037950;28;20054;-74
2022/02/19 03:42:12;;;;;;;8.85;1.58;;;25.10;97.20;;;;;;5051014;28;20132;-73
2022/02/19 03:44:39;;;;;;;4.20;1.27;;;25.10;97.10;;;;;;5048729;28;20037;-76
2022/02/19 03:47:06;;;;;;;6.00;1.00;;;25.10;97.40;;;;;;5049950;28;20116;-75
2022/02/19 03:49:34;;;;;;;8.65;1.25;;;25.30;97.30;;;;;;5037794;28;20024;-74
2022/02/19 03:52:01;;;;;;;6.32;1.40;;;25.40;96.90;;;;;;5051038;28;20092;-74
2022/02/19 03:54:29;;;;;;;4.10;0.73;;;25.40;97.00;;;;;;5049653;28;20024;-73
2022/02/19 03:56:56;;;;;;;10.07;1.65;;;25.60;96.80;;;;;;5046748;28;20386;-75
2022/02/19 03:59:23;;;;;;;5.78;1.02;;;25.90;96.70;;;;;;5045509;28;20024;-74
2022/02/19 04:01:52;;;;;;;7.75;1.00;;;26.10;95.90;;;;;;5034855;28;20021;-73
2022/02/19 04:04:19;;;;;;;3.35;1.35;;;26.00;96.00;;;;;;5046077;28;20121;-74
2022/02/19 04:06:46;;;;;;;7.80;1.40;;;26.20;95.50;;;;;;5044250;28;20021;-74
2022/02/19 04:09:14;;;;;;;6.70;1.08;;;26.40;95.30;;;;;;5047015;28;20112;-75
2022/02/19 04:11:42;;;;;;;6.18;0.93;;;26.50;95.00;;;;;;5043798;28;20079;-74
2022/02/19 04:14:09;;;;;;;6.53;0.90;;;26.70;95.00;;;;;;5049176;28;20053;-73
2022/02/19 04:16:36;;;;;;;7.13;0.95;;;26.60;95.10;;;;;;5050510;28;20028;-72
2022/02/19 04:19:04;;;;;;;8.38;1.40;;;26.60;95.40;;;;;;5048563;28;20036;-73
2022/02/19 04:21:31;;;;;;;6.10;1.00;;;26.80;95.10;;;;;;5049967;28;20028;-74
2022/02/19 04:23:58;;;;;;;10.50;1.27;;;26.90;94.60;;;;;;5048115;28;20120;-74
2022/02/19 04:26:26;;;;;;;5.72;2.05;;;26.90;94.10;;;;;;5047340;28;20017;-74
2022/02/19 04:28:53;;;;;;;4.40;0.98;;;26.80;94.70;;;;;;5047009;28;20399;-75
2022/02/19 04:31:20;;;;;;;3.55;0.60;;;26.70;94.50;;;;;;5048886;28;20045;-74
2022/02/19 04:33:48;;;;;;;4.25;1.38;;;26.60;94.90;;;;;;5050212;28;20074;-73
2022/02/19 04:36:15;;;;;;;7.78;1.52;;;26.70;95.20;;;;;;5044566;28;20040;-72
2022/02/19 04:38:42;;;;;;;7.90;1.42;;;26.70;95.20;;;;;;5048080;28;20361;-74
2022/02/19 04:41:10;;;;;;;5.45;1.15;;;26.60;95.10;;;;;;5049835;28;20036;-73
2022/02/19 04:43:37;;;;;;;7.22;0.95;;;26.40;95.30;;;;;;5050630;28;20496;-73
2022/02/19 04:46:05;;;;;;;8.65;2.53;;;26.10;95.40;;;;;;5049474;28;20045;-73
2022/02/19 04:48:32;;;;;;;6.45;1.48;;;26.00;95.80;;;;;;5048995;28;20025;-73
2022/02/19 04:50:59;;;;;;;10.30;1.50;;;25.80;95.80;;;;;;5049299;28;20044;-74
2022/02/19 04:53:26;;;;;;;6.65;2.13;;;25.70;96.10;;;;;;5049815;28;20029;-74
2022/02/19 04:55:54;;;;;;;5.93;1.48;;;25.50;96.80;;;;;;5049191;28;20500;-73
2022/02/19 04:58:21;;;;;;;4.28;1.33;;;25.30;97.10;;;;;;5047538;28;20056;-73
2022/02/19 05:00:48;;;;;;;7.10;1.10;;;25.20;97.30;;;;;;5047936;28;20025;-75
2022/02/19 05:03:16;;;;;;;3.70;0.85;;;25.00;97.90;;;;;;5049911;28;20063;-74
2022/02/19 05:05:43;;;;;;;5.60;0.82;;;24.90;98.00;;;;;;5048519;28;20455;-73
2022/02/19 05:08:10;;;;;;;12.38;1.65;;;24.80;98.20;;;;;;5047911;28;20048;-74
2022/02/19 05:10:38;;;;;;;3.15;1.02;;;24.60;98.70;;;;;;5042395;28;20021;-74
2022/02/19 05:13:06;;;;;;;5.30;1.98;;;24.40;99.00;;;;;;5048828;28;20502;-74
2022/02/19 05:15:33;;;;;;;7.88;1.15;;;24.40;99.20;;;;;;5044680;28;20033;-75
2022/02/19 05:18:02;;;;;;;6.75;1.00;;;24.20;99.50;;;;;;5049239;28;20047;-73
2022/02/19 05:20:30;;;;;;;9.48;1.48;;;24.10;99.60;;;;;;5047398;28;20025;-73
2022/02/19 05:22:58;;;;;;;6.35;1.45;;;24.10;99.90;;;;;;5046940;28;20045;-75
2022/02/19 05:25:26;;;;;;;9.13;1.42;;;24.10;99.90;;;;;;5044996;28;20037;-76
2022/02/19 05:27:53;;;;;;;5.53;0.98;;;24.00;99.90;;;;;;5047824;28;20473;-73
2022/02/19 05:30:20;;;;;;;9.07;1.20;;;23.90;99.90;;;;;;5044708;28;20036;-74
2022/02/19 05:32:48;;;;;;;8.50;1.55;;;23.80;99.90;;;;;;5048323;28;20021;-74
2022/02/19 05:35:15;;;;;;;4.45;1.15;;;23.80;99.90;;;;;;5043162;28;20369;-75
2022/02/19 05:37:43;;;;;;;4.55;1.35;;;23.80;99.90;;;;;;5041056;28;20367;-75
2022/02/19 05:40:11;;;;;;;5.30;1.63;;;23.70;99.90;;;;;;5046622;28;20434;-74
2022/02/19 05:42:38;;;;;;;6.22;1.27;;;23.70;99.90;;;;;;5048432;28;20442;-75
2022/02/19 05:45:06;;;;;;;6.07;1.55;;;23.60;99.90;;;;;;5049428;28;20047;-76
2022/02/19 05:47:33;;;;;;;4.00;0.90;;;23.50;99.90;;;;;;5045826;28;20013;-74
2022/02/19 05:50:01;;;;;;;2.58;1.00;;;23.60;99.90;;;;;;5040592;28;20037;-74
2022/02/19 05:52:28;;;;;;;2.13;0.90;;;23.50;99.90;;;;;;5049210;28;20021;-74
2022/02/19 05:54:56;;;;;;;4.53;1.90;;;23.50;99.90;;;;;;5048515;28;20013;-74
2022/02/19 05:57:24;;;;;;;10.75;2.13;;;23.50;99.90;;;;;;5049305;28;20039;-75
2022/02/19 05:59:52;;;;;;;4.72;1.20;;;23.40;99.90;;;;;;5045042;28;20035;-73
2022/02/19 06:02:19;;;;;;;5.78;1.67;;;23.40;99.90;;;;;;5045564;28;20060;-74
2022/02/19 06:04:47;;;;;;;10.20;1.45;;;23.30;99.90;;;;;;5052344;28;20124;-74
2022/02/19 06:07:14;;;;;;;6.35;0.93;;;23.40;99.90;;;;;;5052203;28;20052;-73
2022/02/19 06:09:41;;;;;;;13.90;1.98;;;23.40;99.90;;;;;;5051653;28;20502;-73
2022/02/19 06:12:09;;;;;;;5.95;1.48;;;23.40;99.90;;;;;;5046820;28;20021;-74
2022/02/19 06:14:36;;;;;;;5.90;1.10;;;23.40;99.90;;;;;;5048272;28;20110;-75
2022/02/19 06:17:04;;;;;;;7.15;1.10;;;23.50;99.90;;;;;;5052447;28;20021;-75
2022/02/19 06:19:31;;;;;;;3.42;0.80;;;23.50;99.90;;;;;;5043702;28;20087;-75
2022/02/19 06:21:58;;;;;;;9.23;1.15;;;23.50;99.90;;;;;;5045759;28;20104;-74
2022/02/19 06:24:26;;;;;;;3.92;1.35;;;23.60;99.90;;;;;;5051822;28;20064;-76
2022/02/19 06:26:53;;;;;;;6.53;1.42;;;23.50;99.90;;;;;;5051665;28;20040;-77
2022/02/19 06:29:21;;;;;;;6.55;1.15;;;23.50;99.90;;;;;;5051489;28;20456;-75
2022/02/19 06:31:48;;;;;;;9.23;0.90;;;23.50;99.90;;;;;;5048170;28;20028;-74
2022/02/19 06:34:15;;;;;;;9.18;1.40;;;23.50;99.90;;;;;;5050849;28;20124;-74
2022/02/19 06:36:43;;;;;;;5.53;1.13;;;23.60;99.90;;;;;;5053228;28;20452;-75
2022/02/19 06:39:10;;;;;;;5.95;1.20;;;23.60;99.90;;;;;;5050977;28;20086;-76
2022/02/19 06:41:38;;;;;;;7.70;1.73;;;23.60;99.90;;;;;;5053003;28;20048;-75
2022/02/19 06:44:06;;;;;;;4.63;1.33;;;23.60;99.90;;;;;;5051880;28;20033;-74
2022/02/19 06:46:33;;;;;;;10.15;1.90;;;23.70;99.90;;;;;;5045893;28;20352;-75
2022/02/19 06:49:00;;;;;;;8.68;2.15;;;23.70;99.90;;;;;;5051552;28;20037;-75
2022/02/19 06:51:28;;;;;;;6.25;2.70;;;23.70;99.90;;;;;;5050115;28;20017;-73
2022/02/19 06:53:58;;;;;;;9.27;3.70;;;23.60;99.90;;;;;;5058013;28;20029;-74
2022/02/19 06:56:27;;;;;;;14.18;4.25;;;23.60;99.90;;;;;;5051761;28;20036;-74
2022/02/19 06:58:55;;;;;;;9.32;4.05;;;23.60;99.90;;;;;;5052147;28;20127;-74
2022/02/19 07:01:22;;;;;;;11.80;4.95;;;23.50;99.90;;;;;;5051583;28;20480;-74
2022/02/19 07:03:50;;;;;;;10.07;2.92;;;23.50;99.90;;;;;;5052080;28;20472;-74
2022/02/19 07:06:17;;;;;;;8.65;2.55;;;23.50;99.90;;;;;;5051310;28;20094;-75
2022/02/19 07:08:44;;;;;;;9.07;2.60;;;23.40;99.90;;;;;;5046852;28;20471;-75
2022/02/19 07:11:11;;;;;;;2.88;0.90;;;23.40;99.90;;;;;;5047855;28;20029;-75
2022/02/19 07:13:42;;;;;;;6.60;1.13;;;23.40;99.90;;;;;;5040310;28;20541;-76
2022/02/19 07:16:09;;;;;;;8.00;1.15;;;23.40;99.90;;;;;;5049356;28;20040;-73
2022/02/19 07:18:37;;;;;;;9.02;1.52;;;23.30;99.90;;;;;;5046465;28;20032;-73
2022/02/19 07:21:05;;;;;;;7.10;1.48;;;23.40;99.90;;;;;;5048246;28;20017;-73
2022/02/19 07:23:32;;;;;;;9.25;1.63;;;23.40;99.90;;;;;;5048980;28;20029;-78
2022/02/19 07:26:00;;;;;;;9.80;2.88;;;23.30;99.90;;;;;;5046930;28;20032;-78
2022/02/19 07:28:30;;;;;;;12.23;3.53;;;23.30;99.90;;;;;;5044236;28;20021;-75
2022/02/19 07:30:57;;;;;;;10.23;7.25;;;23.30;99.90;;;;;;5044298;28;20024;-75
2022/02/19 07:33:28;;;;;;;7.32;1.98;;;23.20;99.90;;;;;;5048081;28;20025;-77
2022/02/19 07:35:56;;;;;;;3.85;1.00;;;23.40;99.90;;;;;;5047474;28;20174;-78
2022/02/19 07:38:23;;;;;;;3.42;1.02;;;23.50;99.90;;;;;;5049559;28;20051;-77
2022/02/19 07:40:51;;;;;;;3.88;1.00;;;23.40;99.90;;;;;;5050406;28;20033;-77
2022/02/19 07:43:18;;;;;;;6.00;1.17;;;23.40;99.90;;;;;;5046859;28;20045;-76
2022/02/19 07:45:46;;;;;;;4.45;1.63;;;23.40;99.90;;;;;;5049354;28;20075;-78
2022/02/19 07:48:15;;;;;;;6.38;1.52;;;23.50;99.90;;;;;;5038901;28;20096;-76
2022/02/19 07:58:59;;;;;;;10.50;3.28;;;23.30;99.90;;;;;;5047981;28;20486;-76
2022/02/19 08:01:27;;;;;;;17.58;8.55;;;23.30;99.90;;;;;;5050390;28;20021;-75
2022/02/19 08:03:54;;;;;;;26.52;15.27;;;23.30;99.90;;;;;;5049316;28;20025;-79
2022/02/19 08:06:21;;;;;;;35.83;21.50;;;23.30;99.90;;;;;;5050469;28;20029;-75
2022/02/19 08:08:49;;;;;;;27.70;13.02;;;23.30;99.90;;;;;;5049051;28;20078;-77
2022/02/19 08:11:16;;;;;;;13.43;6.35;;;23.30;99.90;;;;;;5049484;28;20068;-78
2022/02/19 08:13:44;;;;;;;17.90;7.32;;;23.30;99.90;;;;;;5049186;28;20032;-76
2022/02/19 08:16:11;;;;;;;28.33;16.02;;;23.30;99.90;;;;;;5048820;28;20029;-78
2022/02/19 08:18:39;;;;;;;33.38;16.65;;;23.20;99.90;;;;;;5044116;28;20025;-75
2022/02/19 08:21:06;;;;;;;34.35;17.60;;;23.00;99.90;;;;;;5043854;28;20596;-75
2022/02/19 08:23:34;;;;;;;51.17;25.75;;;22.80;99.90;;;;;;5040163;28;20118;-76
2022/02/19 08:26:02;;;;;;;25.98;14.35;;;22.80;99.90;;;;;;5044284;28;20090;-74
2022/02/19 08:28:29;;;;;;;22.80;13.85;;;22.80;99.90;;;;;;5042812;28;20758;-76
2022/02/19 08:30:56;;;;;;;27.58;12.43;;;22.90;99.90;;;;;;5037481;28;20622;-76
2022/02/19 08:33:24;;;;;;;67.38;34.83;;;23.00;99.90;;;;;;5041855;28;20405;-77
2022/02/19 08:35:51;;;;;;;60.95;36.55;;;23.00;99.90;;;;;;5046409;28;20115;-76
2022/02/19 08:38:19;;;;;;;35.55;18.35;;;23.00;99.90;;;;;;5047278;28;20013;-77
2022/02/19 08:40:46;;;;;;;28.00;12.55;;;23.00;99.90;;;;;;5048133;28;20483;-78
2022/02/19 08:43:14;;;;;;;11.00;4.40;;;22.90;99.90;;;;;;5046602;28;20105;-76
2022/02/19 08:45:46;;;;;;;13.73;3.63;;;22.90;99.90;;;;;;5048361;28;20060;-76
2022/02/19 08:48:13;;;;;;;8.30;1.60;;;22.80;99.90;;;;;;5048711;28;20521;-74
2022/02/19 08:50:41;;;;;;;12.23;3.05;;;22.60;99.90;;;;;;5047267;28;20140;-77
2022/02/19 08:53:10;;;;;;;6.03;2.45;;;22.70;99.90;;;;;;5048381;28;20487;-77
2022/02/19 08:55:39;;;;;;;9.88;2.08;;;22.80;99.90;;;;;;5049254;28;20029;-76
2022/02/19 08:58:07;;;;;;;8.25;1.42;;;22.90;99.90;;;;;;5049394;28;20360;-75
2022/02/19 09:00:35;;;;;;;9.95;1.48;;;23.00;99.90;;;;;;5045860;28;20021;-76
2022/02/19 09:03:02;;;;;;;5.53;1.98;;;23.00;99.90;;;;;;5034430;28;20029;-78
2022/02/19 09:05:30;;;;;;;11.27;2.00;;;23.00;99.90;;;;;;5042559;28;20072;-75
2022/02/19 09:07:57;;;;;;;8.77;2.08;;;22.90;99.90;;;;;;5044841;28;20056;-76
2022/02/19 09:10:25;;;;;;;6.68;1.75;;;22.80;99.90;;;;;;5048409;28;20083;-76
2022/02/19 09:12:54;;;;;;;6.15;1.33;;;22.80;99.90;;;;;;5051439;28;20033;-79
2022/02/19 09:15:24;;;;;;;6.57;2.10;;;22.90;99.90;;;;;;5037211;28;20036;-76
2022/02/19 09:17:52;;;;;;;4.88;0.88;;;22.80;99.90;;;;;;5046499;28;20056;-75
2022/02/19 09:20:21;;;;;;;7.00;2.10;;;22.90;99.90;;;;;;5045227;28;20025;-75
2022/02/19 09:22:49;;;;;;;3.92;0.90;;;22.80;99.90;;;;;;5055101;28;20067;-79
2022/02/19 09:25:17;;;;;;;7.68;1.17;;;22.80;99.90;;;;;;5051039;28;20037;-79
2022/02/19 09:27:45;;;;;;;8.82;1.60;;;22.80;99.90;;;;;;5047810;28;20460;-79
2022/02/19 09:30:13;;;;;;;8.00;1.48;;;22.80;99.90;;;;;;5047388;28;20029;-77
2022/02/19 09:32:41;;;;;;;13.45;1.45;;;22.80;99.90;;;;;;5049061;28;20709;-76
2022/02/19 09:35:12;;;;;;;6.75;1.23;;;22.80;99.90;;;;;;5047406;28;20029;-76
2022/02/19 09:37:40;;;;;;;11.68;1.17;;;22.70;99.90;;;;;;5041409;28;20021;-75
2022/02/19 09:40:09;;;;;;;7.88;1.35;;;22.90;99.90;;;;;;5051174;28;20025;-76
2022/02/19 09:42:41;;;;;;;6.03;1.15;;;22.90;99.90;;;;;;5049360;28;20048;-76
2022/02/19 09:45:10;;;;;;;7.53;1.25;;;22.90;99.90;;;;;;5050893;28;20064;-76
2022/02/19 09:47:39;;;;;;;5.72;0.88;;;22.90;99.90;;;;;;5048924;28;20032;-77
2022/02/19 09:50:07;;;;;;;12.40;1.48;;;22.90;99.90;;;;;;5052027;28;20037;-75
2022/02/19 09:52:35;;;;;;;3.47;0.93;;;22.90;99.90;;;;;;5052280;28;20032;-76
2022/02/19 09:55:03;;;;;;;8.55;1.55;;;22.90;99.90;;;;;;5052055;28;20139;-77
2022/02/19 09:57:30;;;;;;;9.55;1.50;;;22.90;99.90;;;;;;5052264;28;20037;-77
2022/02/19 09:59:58;;;;;;;8.23;1.98;;;22.90;99.90;;;;;;5051339;28;20102;-76
2022/02/19 10:02:35;;;;;;;3.95;1.00;;;22.90;99.90;;;;;;5051571;28;20036;-75
2022/02/19 10:05:19;;;;;;;5.07;0.75;;;22.90;99.90;;;;;;5049088;28;20053;-76
2022/02/19 10:08:05;;;;;;;8.55;1.70;;;22.80;99.90;;;;;;5051405;28;20432;-75
2022/02/19 10:10:32;;;;;;;;;;;22.70;99.90;;;;;;5047674;28;20039;-76
2022/02/19 10:12:59;;;;;;;6.30;1.42;;;22.60;99.90;;;;;;5048929;28;19920;-76
2022/02/19 10:15:40;;;;;;;7.78;1.38;;;22.60;99.90;;;;;;5049674;28;20447;-75
2022/02/19 10:18:29;;;;;;;9.85;1.50;;;22.60;99.90;;;;;;5049066;28;20025;-77
2022/02/19 10:21:18;;;;;;;5.97;1.00;;;22.60;99.90;;;;;;5046778;28;20025;-75
2022/02/19 10:23:47;;;;;;;5.93;1.15;;;22.70;99.90;;;;;;5048491;28;20033;-76
2022/02/19 10:26:17;;;;;;;8.98;1.13;;;22.70;99.90;;;;;;5049324;28;20495;-76
2022/02/19 10:29:05;;;;;;;6.85;1.70;;;22.60;99.90;;;;;;5051477;28;20387;-76
2022/02/19 10:31:34;;;;;;;6.30;1.00;;;22.50;99.90;;;;;;5036087;28;20448;-75
2022/02/19 10:34:14;;;;;;;9.32;1.38;;;22.50;99.90;;;;;;5047670;28;20052;-76
2022/02/19 10:36:48;;;;;;;8.73;1.95;;;22.50;99.90;;;;;;5044017;28;20040;-75
2022/02/19 10:39:25;;;;;;;4.97;1.60;;;22.50;99.90;;;;;;5051187;28;20124;-78
2022/02/19 10:41:54;;;;;;;9.05;1.30;;;22.50;99.90;;;;;;5051402;28;20033;-77
2022/02/19 10:44:33;;;;;;;6.47;1.92;;;22.40;99.90;;;;;;5051026;28;20530;-76
2022/02/19 10:47:20;;;;;;;10.85;1.75;;;22.40;99.90;;;;;;5051699;28;20042;-75
2022/02/19 10:50:10;;;;;;;6.47;1.40;;;22.40;99.90;;;;;;5035104;28;20124;-76
2022/02/19 10:52:41;;;;;;;3.25;1.20;;;22.40;99.90;;;;;;5051250;28;20025;-76
2022/02/19 10:55:23;;;;;;;5.80;1.92;;;22.40;99.90;;;;;;5051075;28;20052;-77
2022/02/19 10:57:56;;;;;;;10.45;1.25;;;22.40;99.90;;;;;;5051952;28;20064;-76
2022/02/19 11:00:25;;;;;;;3.70;1.15;;;22.40;99.90;;;;;;5051757;28;20025;-75
2022/02/19 11:02:52;;;;;;;3.05;1.05;;;22.30;99.90;;;;;;5052027;28;20379;-77
2022/02/19 11:05:21;;;;;;;10.00;2.20;;;22.30;99.90;;;;;;5050617;28;20361;-76
2022/02/19 11:07:51;;;;;;;7.10;0.95;;;22.20;99.90;;;;;;5047956;28;20021;-75
2022/02/19 11:10:23;;;;;;;10.27;2.20;;;22.20;99.90;;;;;;5049298;28;20043;-74
2022/02/19 11:12:51;;;;;;;12.57;1.77;;;22.20;99.90;;;;;;5048630;28;20021;-74
2022/02/19 11:15:19;;;;;;;6.22;1.35;;;22.20;99.90;;;;;;5051422;28;20120;-78
2022/02/19 11:17:50;;;;;;;8.73;1.48;;;22.10;99.90;;;;;;5049955;28;20159;-73
2022/02/19 11:20:18;;;;;;;3.30;0.90;;;22.20;99.90;;;;;;5049362;28;20021;-75
2022/02/19 11:22:46;;;;;;;5.32;2.42;;;22.10;99.90;;;;;;5051053;28;20032;-80
2022/02/19 11:25:21;;;;;;;10.45;1.83;;;22.00;99.90;;;;;;5050159;28;20036;-79
2022/02/19 11:28:01;;;;;;;9.77;2.15;;;21.90;99.90;;;;;;5051825;28;20031;-77
2022/02/19 11:30:32;;;;;;;8.15;1.50;;;21.80;99.90;;;;;;5049452;28;20438;-76
2022/02/19 11:33:00;;;;;;;10.68;1.52;;;21.80;99.90;;;;;;5050640;28;20021;-75
2022/02/19 11:35:43;;;;;;;11.48;2.00;;;21.80;99.90;;;;;;5050406;28;20098;-80
2022/02/19 11:38:25;;;;;;;5.85;2.00;;;21.80;99.90;;;;;;5046025;28;20494;-77
2022/02/19 11:41:00;;;;;;;8.07;2.15;;;21.70;99.90;;;;;;5044514;28;20088;-77
2022/02/19 11:43:46;;;;;;;6.30;1.52;;;21.70;99.90;;;;;;5038474;28;20435;-74
2022/02/19 11:46:16;;;;;;;5.53;1.27;;;21.70;99.90;;;;;;5047705;28;20547;-77
2022/02/19 11:48:46;;;;;;;6.72;1.08;;;21.70;99.90;;;;;;5049022;28;20029;-80
2022/02/19 11:51:24;;;;;;;8.85;1.30;;;21.70;99.90;;;;;;5050543;28;20041;-80
2022/02/19 11:53:52;;;;;;;9.98;1.55;;;21.70;99.90;;;;;;5049402;28;20090;-79
2022/02/19 11:56:35;;;;;;;12.93;1.45;;;21.70;99.90;;;;;;5050331;28;20036;-77
2022/02/19 11:59:06;;;;;;;9.18;1.75;;;21.70;99.90;;;;;;5050241;28;20087;-81
2022/02/19 12:01:34;;;;;;;5.55;1.05;;;21.70;99.90;;;;;;5037149;28;20435;-77
2022/02/19 12:04:12;;;;;;;5.45;1.80;;;21.60;99.90;;;;;;5041582;28;20121;-74
2022/02/19 12:06:44;;;;;;;8.02;1.58;;;21.60;99.90;;;;;;5047836;28;20498;-78
2022/02/19 12:09:13;;;;;;;6.57;1.23;;;21.70;99.90;;;;;;5035896;28;20175;-78
2022/02/19 12:11:56;;;;;;;11.55;1.42;;;21.70;99.90;;;;;;5047674;28;20033;-76
2022/02/19 12:14:51;;;;;;;5.35;0.88;;;21.60;99.90;;;;;;5046042;28;20032;-76
2022/02/19 12:17:23;;;;;;;8.75;2.15;;;21.70;99.90;;;;;;5048802;28;20021;-75
2022/02/19 12:19:53;;;;;;;9.38;1.65;;;21.70;99.90;;;;;;5049568;28;20033;-75
2022/02/19 12:22:49;;;;;;;4.88;0.98;;;21.70;99.90;;;;;;5050804;28;20182;-80
2022/02/19 12:25:17;;;;;;;7.15;1.10;;;21.70;99.90;;;;;;5048588;28;20036;-74
2022/02/19 12:28:04;;;;;;;9.52;1.67;;;21.70;99.90;;;;;;5049267;28;20027;-74
2022/02/19 12:30:31;;;;;;;9.82;1.58;;;21.70;99.90;;;;;;5047790;28;20033;-75
2022/02/19 12:33:01;;;;;;;6.53;1.70;;;21.70;99.90;;;;;;5047308;28;20388;-74
2022/02/19 12:35:36;;;;;;;9.65;1.30;;;21.70;99.90;;;;;;5048032;28;20117;-73
2022/02/19 12:38:04;;;;;;;6.00;1.10;;;21.70;99.90;;;;;;5045893;28;20033;-74
2022/02/19 12:40:32;;;;;;;11.82;1.95;;;21.70;99.90;;;;;;5047415;28;20044;-73
2022/02/19 12:43:00;;;;;;;8.20;1.60;;;21.60;99.90;;;;;;5049068;28;20041;-73
2022/02/19 12:45:27;;;;;;;7.18;1.23;;;21.60;99.90;;;;;;5049335;28;20387;-73
2022/02/19 12:47:55;;;;;;;8.15;1.27;;;21.60;99.90;;;;;;5049537;28;20096;-73
2022/02/19 12:50:22;;;;;;;9.27;1.45;;;21.60;99.90;;;;;;5043061;28;20040;-73
2022/02/19 12:52:51;;;;;;;8.15;1.50;;;21.60;99.90;;;;;;5050295;28;20021;-72
2022/02/19 12:55:20;;;;;;;8.70;1.67;;;21.60;99.90;;;;;;5046651;28;20039;-73
2022/02/19 12:57:52;;;;;;;6.28;1.35;;;21.60;99.90;;;;;;5048908;28;20021;-74
2022/02/19 13:00:23;;;;;;;9.07;1.70;;;21.60;99.90;;;;;;5048298;28;20067;-73
2022/02/19 13:02:58;;;;;;;5.25;1.60;;;21.60;99.90;;;;;;5030314;28;20324;-73